Time;durP1;ratioP1;P1;durP2;ratioP2;P2;SDS_P1;SDS_P2;PMS_P1;PMS_P2;Temp;Humidity;BMP_temperature;BMP_pressure;BME280_temperature;BME280_humidity;BME280_pressure;Samples;Min_cycle;Max_cycle;Signal;HPM_P1;HPM_P2
2021/09/09 00:01:20;;;;;;;8.58;7.33;;;;;;;15.20;67.20;94900.66;828572;71;32821;-86
2021/09/09 00:16:08;;;;;;;9.10;8.40;;;;;;;15.01;68.48;94898.27;828268;71;29698;-87
2021/09/09 00:31:21;;;;;;;10.72;9.78;;;;;;;14.82;70.14;94889.27;834043;71;32801;-83
2021/09/09 00:46:16;;;;;;;13.48;12.28;;;;;;;14.75;70.98;94886.81;827466;71;33453;-86
2021/09/09 01:01:11;;;;;;;12.82;11.83;;;;;;;14.65;70.85;94869.91;834637;71;30291;-84
2021/09/09 01:16:19;;;;;;;14.83;13.55;;;;;;;14.81;71.07;94886.91;835487;71;32887;-84
2021/09/09 01:31:08;;;;;;;15.45;13.88;;;;;;;14.62;71.36;94872.07;835575;70;29714;-82
2021/09/09 01:46:12;;;;;;;13.98;12.70;;;;;;;14.49;72.47;94875.53;828690;71;32538;-83
2021/09/09 02:01:18;;;;;;;12.90;11.73;;;;;;;14.33;73.54;94872.48;829085;70;32706;-83
2021/09/09 02:16:10;;;;;;;13.90;12.55;;;;;;;14.24;73.94;94863.75;835766;70;30412;-85
2021/09/09 02:31:19;;;;;;;13.78;12.47;;;;;;;14.22;74.08;94869.33;828552;71;32733;-84
2021/09/09 02:46:17;;;;;;;14.23;12.73;;;;;;;14.23;74.39;94868.78;835740;69;32771;-84
2021/09/09 03:16:09;;;;;;;11.83;10.63;;;;;;;14.08;75.78;94871.25;794739;74;30462;-82
2021/09/09 03:31:15;;;;;;;10.25;9.08;;;;;;;13.92;76.85;94872.69;823283;71;32786;-88
2021/09/09 03:46:15;;;;;;;9.30;8.40;;;;;;;13.76;77.83;94871.70;833877;71;32755;-87
2021/09/09 04:01:16;;;;;;;8.83;8.03;;;;;;;13.60;78.50;94878.39;828442;71;32888;-86
2021/09/09 04:16:09;;;;;;;8.23;7.42;;;;;;;13.52;79.09;94883.05;834569;71;30096;-85
2021/09/09 04:31:18;;;;;;;8.33;7.53;;;;;;;13.59;79.07;94870.25;827469;71;32805;-81
2021/09/09 04:46:09;;;;;;;9.05;8.25;;;;;;;13.82;78.59;94861.82;828555;71;29776;-82
2021/09/09 05:01:08;;;;;;;12.00;9.33;;;;;;;13.99;78.03;94851.41;834127;71;29672;-80
2021/09/09 05:16:15;;;;;;;10.15;8.88;;;;;;;14.27;77.08;94847.30;827502;71;32710;-80
2021/09/09 05:31:08;;;;;;;9.13;8.15;;;;;;;14.46;76.18;94852.39;824412;71;29800;-81
2021/09/09 05:46:09;;;;;;;10.40;8.68;;;;;;;14.54;75.84;94856.94;820229;71;30447;-84
2021/09/09 06:01:09;;;;;;;9.98;9.08;;;;;;;14.59;75.73;94837.56;828884;71;30363;-81
2021/09/09 06:16:28;;;;;;;11.03;9.60;;;;;;;14.34;79.96;94849.53;833696;71;32905;-80
2021/09/09 06:31:08;;;;;;;10.50;9.50;;;;;;;14.21;80.54;94840.59;828041;71;30223;-79
2021/09/09 06:46:09;;;;;;;10.05;9.15;;;;;;;14.39;80.53;94845.43;834022;71;30285;-77
2021/09/09 07:01:16;;;;;;;10.00;8.98;;;;;;;14.52;79.27;94863.61;827203;71;32739;-80
2021/09/09 07:16:09;;;;;;;8.18;7.42;;;;;;;14.88;76.93;94854.24;828066;71;30377;-78
2021/09/09 07:31:17;;;;;;;8.00;7.20;;;;;;;15.19;75.21;94867.39;828032;71;32898;-77
2021/09/09 07:46:18;;;;;;;11.12;7.22;;;;;;;15.21;75.16;94889.00;827425;71;32691;-78
2021/09/09 08:01:08;;;;;;;8.23;7.42;;;;;;;15.40;74.76;94899.31;823791;71;29759;-80
2021/09/09 08:16:08;;;;;;;9.63;7.25;;;;;;;15.35;75.81;94908.72;821508;71;29768;-78
2021/09/09 08:31:08;;;;;;;6.30;5.70;;;;;;;15.33;75.39;94900.31;823366;71;29819;-79
2021/09/09 08:46:27;;;;;;;8.20;6.42;;;;;;;15.29;77.51;94894.61;828981;71;32949;-79
2021/09/09 09:16:16;;;;;;;8.75;7.87;;;;;;;14.82;85.02;94909.59;826531;71;32759;-78
2021/09/09 09:31:11;;;;;;;7.47;6.78;;;;;;;14.92;85.66;94885.58;827835;71;29725;-75
2021/09/09 09:46:11;;;;;;;7.53;6.92;;;;;;;15.78;81.57;94874.20;834258;71;31461;-77
2021/09/09 10:01:14;;;;;;;4.95;4.55;;;;;;;15.71;77.74;94867.23;833458;71;32681;-79
2021/09/09 10:16:11;;;;;;;4.30;4.00;;;;;;;15.70;75.56;94867.78;827902;71;30250;-77
2021/09/09 10:31:19;;;;;;;7.55;6.28;;;;;;;15.75;78.61;94873.48;833843;71;29687;-79
2021/09/09 10:46:11;;;;;;;6.03;5.05;;;;;;;15.81;75.95;94865.63;821622;71;30228;-77
2021/09/09 11:01:14;;;;;;;4.97;4.35;;;;;;;16.82;70.90;94858.70;821129;71;32784;-78
2021/09/09 11:16:25;;;;;;;4.12;3.72;;;;;;;17.63;64.60;94840.94;822244;71;30237;-80
2021/09/09 11:31:23;;;;;;;7.42;3.65;;;;;;;17.65;62.89;94831.33;821914;71;29834;-78
2021/09/09 11:46:09;;;;;;;3.90;3.60;;;;;;;17.82;62.95;94841.80;827937;71;29703;-79
2021/09/09 12:01:15;;;;;;;8.63;4.58;;;;;;;17.72;64.04;94821.76;827050;71;32721;-79
2021/09/09 12:16:21;;;;;;;4.42;4.03;;;;;;;17.67;62.90;94814.53;833617;71;29628;-81
2021/09/09 12:31:36;;;;;;;6.33;3.60;;;;;;;17.64;61.35;94788.10;827127;71;33276;-79
2021/09/09 12:46:32;;;;;;;4.50;4.10;;;;;;;17.89;60.98;94786.34;827091;71;32781;-76
2021/09/09 13:01:13;;;;;;;5.20;4.80;;;;;;;17.71;63.07;94781.70;827830;71;32589;-77
2021/09/09 13:16:10;;;;;;;5.10;4.60;;;;;;;17.75;63.71;94773.31;827577;71;30534;-78
2021/09/09 13:31:10;;;;;;;6.72;4.60;;;;;;;17.47;65.06;94770.42;827779;71;30647;-78
2021/09/09 13:46:09;;;;;;;4.78;4.47;;;;;;;17.37;66.42;94784.08;833568;71;29702;-77
2021/09/09 14:01:11;;;;;;;5.97;5.40;;;;;;;17.39;67.03;94768.61;827909;71;30754;-78
2021/09/09 14:16:35;;;;;;;7.10;5.20;;;;;;;17.45;67.01;94775.83;827294;71;31998;-82
2021/09/09 14:31:31;;;;;;;6.67;5.08;;;;;;;16.96;68.63;94756.44;800881;74;32966;-80
2021/09/09 14:46:15;;;;;;;6.55;5.67;;;;;;;16.83;70.26;94759.55;828198;71;32690;-76
2021/09/09 15:16:14;;;;;;;9.98;6.28;;;;;;;16.68;70.80;94755.53;827352;71;32809;-78
2021/09/09 15:31:19;;;;;;;7.37;6.67;;;;;;;16.59;71.51;94749.52;832537;71;32839;-76
2021/09/09 15:46:08;;;;;;;9.45;6.37;;;;;;;16.31;73.59;94737.24;824895;71;29927;-79
2021/09/09 16:01:09;;;;;;;7.40;5.70;;;;;;;16.19;74.00;94729.95;818905;71;30375;-76
2021/09/09 16:16:21;;;;;;;6.45;5.25;;;;;;;16.02;72.25;94709.07;820282;71;33401;-78
2021/09/09 16:31:15;;;;;;;6.03;5.53;;;;;;;15.94;72.93;94722.34;821647;71;32053;-79
2021/09/09 16:46:08;;;;;;;5.90;4.92;;;;;;;15.81;74.21;94739.94;828110;71;30199;-77
2021/09/09 17:01:18;;;;;;;6.50;5.53;;;;;;;15.75;74.97;94734.05;827275;71;32639;-80
2021/09/09 17:16:08;;;;;;;6.47;5.62;;;;;;;16.10;74.20;94728.67;828256;71;29708;-78
2021/09/09 17:31:08;;;;;;;6.20;5.55;;;;;;;15.79;75.20;94737.62;828412;71;29697;-78
2021/09/09 17:46:08;;;;;;;8.30;5.45;;;;;;;15.66;75.36;94753.09;828436;71;30164;-78
2021/09/09 18:01:09;;;;;;;6.70;5.70;;;;;;;15.62;74.17;94761.42;824554;71;30316;-76
2021/09/09 18:16:14;;;;;;;5.50;5.00;;;;;;;15.63;72.45;94766.41;828351;71;32666;-79
2021/09/09 18:31:14;;;;;;;5.65;5.15;;;;;;;15.68;72.12;94769.42;827361;71;33154;-79
2021/09/09 18:46:10;;;;;;;8.53;6.45;;;;;;;15.63;74.63;94774.34;833774;71;30402;-79
2021/09/09 19:01:08;;;;;;;8.40;7.10;;;;;;;15.49;77.34;94767.63;833951;71;29826;-82
2021/09/09 19:16:09;;;;;;;6.97;6.28;;;;;;;15.38;78.73;94768.50;834024;71;30772;-78
2021/09/09 19:31:09;;;;;;;8.20;7.40;;;;;;;15.40;79.27;94767.64;828053;71;30334;-76
2021/09/09 19:46:16;;;;;;;7.87;6.97;;;;;;;15.52;79.93;94768.34;823510;71;33123;-82
2021/09/09 20:01:09;;;;;;;7.97;7.17;;;;;;;15.62;79.05;94779.37;828143;71;30277;-80
2021/09/09 20:16:12;;;;;;;7.95;7.15;;;;;;;15.65;77.98;94775.33;835599;71;31993;-78
2021/09/09 20:31:09;;;;;;;6.58;5.97;;;;;;;15.66;77.04;94778.22;828123;71;30728;-79
2021/09/09 20:46:14;;;;;;;7.05;6.45;;;;;;;15.72;76.32;94770.91;827453;71;32743;-77
2021/09/09 21:16:09;;;;;;;6.22;5.62;;;;;;;15.77;76.35;94780.82;828264;71;30274;-78
2021/09/09 21:31:15;;;;;;;7.55;6.33;;;;;;;15.86;75.80;94774.73;827454;71;32794;-78
2021/09/09 21:46:08;;;;;;;7.65;6.95;;;;;;;15.93;75.67;94775.80;834236;71;29705;-80
2021/09/09 22:01:15;;;;;;;8.40;7.60;;;;;;;15.97;75.97;94767.45;827548;71;32701;-79
2021/09/09 22:16:12;;;;;;;8.48;7.67;;;;;;;16.01;76.14;94760.99;829455;71;32009;-77
2021/09/09 22:31:08;;;;;;;9.85;8.93;;;;;;;16.05;76.44;94757.18;835277;71;28671;-78
2021/09/09 22:46:08;;;;;;;8.48;7.60;;;;;;;16.05;76.18;94746.59;828325;71;28662;-77
2021/09/09 23:01:08;;;;;;;8.18;7.47;;;;;;;15.99;76.09;94734.83;829362;71;28685;-78
2021/09/09 23:16:09;;;;;;;8.28;7.58;;;;;;;16.00;76.06;94727.14;828182;71;29192;-77
2021/09/09 23:31:15;;;;;;;9.70;8.80;;;;;;;16.02;76.70;94717.56;828821;71;31728;-77
2021/09/09 23:46:14;;;;;;;8.75;7.90;;;;;;;15.98;76.35;94695.47;827440;71;31766;-78
